createdAt,value
2023-06-17T00:00:15.799Z,93899.75
2023-06-17T00:01:12.781Z,93870.28
2023-06-17T00:02:09.653Z,93850.13
2023-06-17T00:03:06.706Z,93881.94
2023-06-17T00:04:04.290Z,93775.41
2023-06-17T00:05:01.400Z,93815.88
2023-06-17T00:05:58.197Z,93874.91
2023-06-17T00:06:55.072Z,93870.59
2023-06-17T00:07:52.784Z,93906.66
2023-06-17T00:08:50.244Z,93889.09
2023-06-17T00:09:47.055Z,93912.28
2023-06-17T00:10:45.065Z,93882.19
2023-06-17T00:11:41.952Z,93906.66
2023-06-17T00:12:39.458Z,93904.00
2023-06-17T00:13:36.238Z,93902.47
2023-06-17T00:14:33.790Z,93903.00
2023-06-17T00:15:33.909Z,93905.06
2023-06-17T00:16:33.964Z,93875.03
2023-06-17T00:17:32.150Z,93870.16
2023-06-17T00:18:29.826Z,93878.09
2023-06-17T00:19:26.803Z,93853.28
2023-06-17T00:20:24.713Z,93885.69
2023-06-17T00:21:21.768Z,93895.03
2023-06-17T00:22:19.946Z,93856.69
2023-06-17T00:23:16.884Z,93842.06
2023-06-17T00:24:13.803Z,93895.03
2023-06-17T00:25:12.789Z,93896.00
2023-06-17T00:26:09.680Z,93898.81
2023-06-17T00:27:06.796Z,93881.16
2023-06-17T00:28:03.801Z,93883.69
2023-06-17T00:29:00.659Z,93890.03
2023-06-17T00:30:00.792Z,93868.63
2023-06-17T00:30:57.730Z,93885.00
2023-06-17T00:31:54.443Z,93834.84
2023-06-17T00:32:51.248Z,93880.69
2023-06-17T00:33:48.081Z,93853.31
2023-06-17T00:34:44.910Z,93847.13
2023-06-17T00:35:42.367Z,93884.59
2023-06-17T00:36:39.148Z,93885.50
2023-06-17T00:37:35.943Z,93896.78
2023-06-17T00:38:33.886Z,93793.53
2023-06-17T00:39:30.769Z,93886.44
2023-06-17T00:40:27.607Z,93842.47
2023-06-17T00:41:24.398Z,93871.81
2023-06-17T00:42:21.268Z,93892.19
2023-06-17T00:43:18.169Z,93856.69
2023-06-17T00:44:15.009Z,93867.94
2023-06-17T00:45:12.117Z,93842.81
2023-06-17T00:46:12.990Z,93884.81
2023-06-17T00:47:12.600Z,93789.56
2023-06-17T00:48:11.439Z,93852.94
2023-06-17T00:49:12.521Z,93881.63
2023-06-17T00:50:16.378Z,93886.72
2023-06-17T00:51:13.250Z,93890.44
2023-06-17T00:52:27.374Z,93889.88
2023-06-17T00:53:32.485Z,93792.63
2023-06-17T00:54:29.838Z,93880.59
2023-06-17T00:55:28.130Z,93881.13
2023-06-17T00:56:26.430Z,93891.31
2023-06-17T00:57:24.461Z,93884.31
2023-06-17T00:58:21.381Z,93887.34
2023-06-17T00:59:18.163Z,93882.66
2023-06-17T01:00:16.305Z,93879.97
2023-06-17T01:01:14.956Z,93796.56
2023-06-17T01:02:14.741Z,93787.31
2023-06-17T01:03:11.767Z,93877.19
2023-06-17T01:04:08.828Z,93874.59
2023-06-17T01:05:06.101Z,93867.50
2023-06-17T01:06:13.281Z,93866.97
2023-06-17T01:07:36.744Z,93871.75
2023-06-17T01:08:41.961Z,93827.25
2023-06-17T01:09:44.348Z,93871.75
2023-06-17T01:10:59.438Z,93869.69
2023-06-17T01:11:58.623Z,93850.31
2023-06-17T01:12:58.902Z,93866.28
2023-06-17T01:13:57.929Z,93868.13
2023-06-17T01:14:58.280Z,93863.13
2023-06-17T01:15:57.658Z,93860.41
2023-06-17T01:16:55.788Z,93873.56
2023-06-17T01:17:56.305Z,93840.03
2023-06-17T01:18:54.658Z,93849.38
2023-06-17T01:19:52.855Z,93857.84
2023-06-17T01:20:55.486Z,93844.22
2023-06-17T01:21:54.640Z,93839.84
2023-06-17T01:22:55.737Z,93856.22
2023-06-17T01:23:54.642Z,93869.72
2023-06-17T01:24:52.734Z,93853.16
2023-06-17T01:25:50.833Z,93854.72
2023-06-17T01:26:55.581Z,93850.63
2023-06-17T01:27:55.535Z,93826.91
2023-06-17T01:28:54.494Z,93868.81
2023-06-17T01:29:51.748Z,93871.66
2023-06-17T01:30:49.354Z,93845.50
2023-06-17T01:31:49.967Z,93872.09
2023-06-17T01:32:46.879Z,93870.22
2023-06-17T01:33:48.179Z,93822.41
2023-06-17T01:34:59.841Z,93856.63
2023-06-17T01:36:11.490Z,93868.63
2023-06-17T01:37:13.016Z,93855.38
2023-06-17T01:38:22.093Z,93868.59
2023-06-17T01:39:27.000Z,93840.63
2023-06-17T01:40:25.919Z,93824.88
2023-06-17T01:41:34.872Z,93860.41
2023-06-17T01:42:35.820Z,93862.97
2023-06-17T01:43:36.655Z,93860.59
2023-06-17T01:44:36.133Z,93839.47
2023-06-17T01:45:34.279Z,93866.59
2023-06-17T01:46:32.303Z,93861.91
2023-06-17T01:47:29.351Z,93867.69
2023-06-17T01:48:26.290Z,93825.44
2023-06-17T01:49:23.126Z,93834.25
2023-06-17T01:50:21.032Z,93787.31
2023-06-17T01:51:18.107Z,93858.03
2023-06-17T01:52:14.849Z,93858.75
2023-06-17T01:53:12.094Z,93861.78
2023-06-17T01:54:09.006Z,93860.19
2023-06-17T01:55:06.284Z,93856.13
2023-06-17T01:56:03.876Z,93849.31
2023-06-17T01:57:01.937Z,93825.91
2023-06-17T01:57:58.848Z,93832.22
2023-06-17T01:58:55.735Z,93858.94
2023-06-17T01:59:56.825Z,93856.44
2023-06-17T02:00:54.118Z,93860.47
2023-06-17T02:01:51.153Z,93829.06
2023-06-17T02:02:47.990Z,93777.66
2023-06-17T02:03:45.581Z,93845.56
2023-06-17T02:04:42.767Z,93856.03
2023-06-17T02:05:39.644Z,93846.94
2023-06-17T02:06:36.532Z,93849.66
2023-06-17T02:07:33.414Z,93855.34
2023-06-17T02:08:30.172Z,93851.31
2023-06-17T02:09:27.130Z,93822.50
2023-06-17T02:10:24.043Z,93857.34
2023-06-17T02:11:21.183Z,93843.53
2023-06-17T02:12:18.041Z,93781.53
2023-06-17T02:13:14.772Z,93809.69
2023-06-17T02:14:11.577Z,93852.59
2023-06-17T02:15:09.099Z,93810.16
2023-06-17T02:16:06.051Z,93833.97
2023-06-17T02:17:04.362Z,93833.31
2023-06-17T02:18:01.770Z,93801.00
2023-06-17T02:18:58.561Z,93780.44
2023-06-17T02:19:56.014Z,93818.41
2023-06-17T02:20:53.647Z,93851.66
2023-06-17T02:21:50.468Z,93838.00
2023-06-17T02:22:47.328Z,93863.34
2023-06-17T02:23:47.024Z,93862.00
2023-06-17T02:24:43.937Z,93857.72
2023-06-17T02:25:41.092Z,93855.09
2023-06-17T02:26:38.071Z,93832.63
2023-06-17T02:27:35.132Z,93871.13
2023-06-17T02:28:32.454Z,93853.97
2023-06-17T02:29:29.222Z,93832.72
2023-06-17T02:30:26.157Z,93869.38
2023-06-17T02:31:23.287Z,93853.97
2023-06-17T02:32:20.129Z,93839.44
2023-06-17T02:33:19.358Z,93861.22
2023-06-17T02:34:16.768Z,93823.06
2023-06-17T02:35:13.520Z,93863.13
2023-06-17T02:36:10.819Z,93828.13
2023-06-17T02:37:08.703Z,93857.53
2023-06-17T02:38:05.620Z,93851.94
2023-06-17T02:39:02.503Z,93851.38
2023-06-17T02:39:59.281Z,93862.13
2023-06-17T02:40:56.208Z,93862.91
2023-06-17T02:41:53.179Z,93847.25
2023-06-17T02:42:49.969Z,93848.44
2023-06-17T02:43:46.779Z,93825.53
2023-06-17T02:44:43.695Z,93861.19
2023-06-17T02:45:40.572Z,93838.34
2023-06-17T02:46:37.511Z,93831.78
2023-06-17T02:47:34.762Z,93864.22
2023-06-17T02:48:31.569Z,93827.81
2023-06-17T02:49:28.545Z,93846.56
2023-06-17T02:50:27.114Z,93850.22
2023-06-17T02:51:25.066Z,93847.97
2023-06-17T02:52:22.318Z,93842.53
2023-06-17T02:53:19.056Z,93864.16
2023-06-17T02:54:15.892Z,93866.09
2023-06-17T02:55:12.704Z,93852.28
2023-06-17T02:56:09.652Z,93770.75
2023-06-17T02:57:06.816Z,93822.56
2023-06-17T02:58:04.344Z,93869.59
2023-06-17T02:59:01.739Z,93860.19
2023-06-17T02:59:59.150Z,93801.22
2023-06-17T03:00:56.022Z,93876.13
2023-06-17T03:01:52.832Z,93871.97
2023-06-17T03:02:50.640Z,93842.66
2023-06-17T03:03:47.468Z,93872.78
2023-06-17T03:04:44.341Z,93865.41
2023-06-17T03:05:42.581Z,93875.44
2023-06-17T03:06:42.254Z,93860.88
2023-06-17T03:07:41.474Z,93876.28
2023-06-17T03:08:40.697Z,93858.03
2023-06-17T03:09:37.472Z,93865.28
2023-06-17T03:10:35.328Z,93866.63
2023-06-17T03:11:32.135Z,93823.13
2023-06-17T03:12:28.981Z,93831.56
2023-06-17T03:13:25.862Z,93876.63
2023-06-17T03:14:22.675Z,93875.84
2023-06-17T03:15:19.497Z,93854.09
2023-06-17T03:16:18.220Z,93865.66
2023-06-17T03:17:15.195Z,93879.41
2023-06-17T03:18:12.183Z,93880.75
2023-06-17T03:19:09.009Z,93852.88
2023-06-17T03:20:09.899Z,93883.06
2023-06-17T03:21:06.749Z,93869.66
2023-06-17T03:22:03.619Z,93876.75
2023-06-17T03:23:03.602Z,93871.66
2023-06-17T03:24:02.026Z,93886.31
2023-06-17T03:24:58.794Z,93855.63
2023-06-17T03:25:56.194Z,93881.25
2023-06-17T03:26:54.621Z,93856.81
2023-06-17T03:27:51.917Z,93885.44
2023-06-17T03:28:48.643Z,93874.91
2023-06-17T03:29:45.483Z,93850.22
2023-06-17T03:30:42.503Z,93889.53
2023-06-17T03:31:39.335Z,93877.47
2023-06-17T03:32:36.738Z,93883.81
2023-06-17T03:33:33.689Z,93862.78
2023-06-17T03:34:32.457Z,93889.09
2023-06-17T03:35:29.224Z,93873.19
2023-06-17T03:36:26.309Z,93882.63
2023-06-17T03:37:23.285Z,93873.44
2023-06-17T03:38:21.039Z,93895.03
2023-06-17T03:39:17.913Z,93890.59
2023-06-17T03:40:14.924Z,93884.31
2023-06-17T03:41:12.560Z,93894.84
2023-06-17T03:42:09.451Z,93865.66
2023-06-17T03:43:06.220Z,93895.44
2023-06-17T03:44:03.008Z,93895.59
2023-06-17T03:44:59.849Z,93898.50
2023-06-17T03:45:56.575Z,93897.91
2023-06-17T03:46:53.436Z,93867.84
2023-06-17T03:47:50.565Z,93885.69
2023-06-17T03:48:47.897Z,93864.84
2023-06-17T03:49:45.469Z,93902.16
2023-06-17T03:50:42.237Z,93866.78
2023-06-17T03:51:39.363Z,93872.59
2023-06-17T03:52:36.177Z,93871.44
2023-06-17T03:53:33.062Z,93901.38
2023-06-17T03:54:29.891Z,93894.94
2023-06-17T03:55:26.769Z,93899.13
2023-06-17T03:56:23.683Z,93895.94
2023-06-17T03:57:20.490Z,93905.41
2023-06-17T03:58:18.885Z,93903.59
2023-06-17T03:59:16.310Z,93906.31
2023-06-17T04:00:15.048Z,93899.91
2023-06-17T04:01:15.988Z,93866.97
2023-06-17T04:02:12.991Z,93905.28
2023-06-17T04:03:10.129Z,93898.09
2023-06-17T04:04:07.053Z,93870.84
2023-06-17T04:05:06.185Z,93903.28
2023-06-17T04:06:03.150Z,93908.66
2023-06-17T04:06:59.924Z,93880.47
2023-06-17T04:08:00.705Z,93864.50
2023-06-17T04:08:57.456Z,93907.16
2023-06-17T04:10:06.302Z,93882.06
2023-06-17T04:11:04.271Z,93912.06
2023-06-17T04:12:01.318Z,93858.66
2023-06-17T04:12:58.130Z,93892.31
2023-06-17T04:13:54.994Z,93911.53
2023-06-17T04:14:51.754Z,93917.31
2023-06-17T04:15:48.566Z,93918.47
2023-06-17T04:16:45.577Z,93917.31
2023-06-17T04:17:42.384Z,93896.56
2023-06-17T04:18:41.108Z,93916.44
2023-06-17T04:19:38.873Z,93880.72
2023-06-17T04:20:36.177Z,93902.69
2023-06-17T04:21:32.994Z,93926.03
2023-06-17T04:22:29.767Z,93894.53
2023-06-17T04:23:26.508Z,93924.00
2023-06-17T04:24:23.369Z,93882.28
2023-06-17T04:25:22.225Z,93919.31
2023-06-17T04:26:20.188Z,93882.88
2023-06-17T04:27:17.014Z,93883.41
2023-06-17T04:28:14.261Z,93933.59
2023-06-17T04:29:11.423Z,93892.13
2023-06-17T04:30:09.972Z,93933.44
2023-06-17T04:31:06.905Z,93931.91
2023-06-17T04:32:03.947Z,93929.84
2023-06-17T04:33:01.733Z,93881.72
2023-06-17T04:34:01.562Z,93932.84
2023-06-17T04:34:58.417Z,93885.91
2023-06-17T04:35:57.043Z,93923.41
2023-06-17T04:36:58.514Z,93936.38
2023-06-17T04:37:55.582Z,93901.88
2023-06-17T04:38:52.373Z,93941.41
2023-06-17T04:39:49.838Z,93946.03
2023-06-17T04:40:46.652Z,93914.28
2023-06-17T04:41:47.080Z,93947.41
2023-06-17T04:42:45.939Z,93914.06
2023-06-17T04:43:50.089Z,93951.84
2023-06-17T04:44:50.092Z,93957.63
2023-06-17T04:45:47.240Z,93955.47
2023-06-17T04:46:45.114Z,93953.16
2023-06-17T04:47:42.642Z,93925.66
2023-06-17T04:48:40.665Z,93925.13
2023-06-17T04:49:42.541Z,93953.09
2023-06-17T04:50:39.372Z,93958.59
2023-06-17T04:51:39.513Z,93931.63
2023-06-17T04:52:36.284Z,93944.81
2023-06-17T04:53:33.117Z,93954.91
2023-06-17T04:54:30.735Z,93957.75
2023-06-17T04:55:27.568Z,93916.06
2023-06-17T04:56:27.978Z,93945.38
2023-06-17T04:57:24.932Z,93959.56
2023-06-17T04:58:21.759Z,93954.00
2023-06-17T04:59:20.758Z,93944.47
2023-06-17T05:00:20.019Z,93961.03
2023-06-17T05:01:18.511Z,93952.75
2023-06-17T05:02:15.465Z,93965.03
2023-06-17T05:03:12.476Z,93924.03
2023-06-17T05:04:09.383Z,93957.91
2023-06-17T05:05:07.162Z,93951.50
2023-06-17T05:06:04.049Z,93942.00
2023-06-17T05:07:00.866Z,93935.22
2023-06-17T05:07:57.675Z,93966.84
2023-06-17T05:08:54.560Z,93922.50
2023-06-17T05:09:51.391Z,93958.47
2023-06-17T05:10:48.256Z,93914.31
2023-06-17T05:11:45.137Z,93963.22
2023-06-17T05:12:43.062Z,93960.34
2023-06-17T05:13:40.822Z,93970.28
2023-06-17T05:14:37.601Z,93967.88
2023-06-17T05:15:34.394Z,93903.13
2023-06-17T05:16:32.338Z,93944.44
2023-06-17T05:17:29.201Z,93962.47
2023-06-17T05:18:26.104Z,93967.66
2023-06-17T05:19:22.832Z,93941.28
2023-06-17T05:20:20.010Z,93953.00
2023-06-17T05:21:21.919Z,93938.16
2023-06-17T05:22:18.753Z,93959.53
2023-06-17T05:23:15.661Z,93966.22
2023-06-17T05:24:12.518Z,93956.75
2023-06-17T05:25:09.426Z,93955.69
2023-06-17T05:26:06.197Z,93959.88
2023-06-17T05:27:03.160Z,93958.69
2023-06-17T05:28:01.575Z,93966.94
2023-06-17T05:28:58.382Z,93965.59
2023-06-17T05:29:55.171Z,93958.41
2023-06-17T05:30:52.021Z,93967.56
2023-06-17T05:31:48.891Z,93959.72
2023-06-17T05:32:45.667Z,93963.03
2023-06-17T05:33:42.666Z,93967.97
2023-06-17T05:34:39.463Z,93967.78
2023-06-17T05:35:36.432Z,93941.47
2023-06-17T05:36:33.233Z,93963.97
2023-06-17T05:37:30.067Z,93884.91
2023-06-17T05:38:30.225Z,93955.84
2023-06-17T05:39:27.016Z,93967.69
2023-06-17T05:40:23.890Z,93967.09
2023-06-17T05:41:21.031Z,93958.94
2023-06-17T05:42:17.864Z,93947.13
2023-06-17T05:43:14.639Z,93964.00
2023-06-17T05:44:11.505Z,93967.81
2023-06-17T05:45:08.741Z,93905.22
2023-06-17T05:46:05.830Z,93972.13
2023-06-17T05:47:02.788Z,93967.47
2023-06-17T05:47:59.689Z,93970.53
2023-06-17T05:48:56.633Z,93971.00
2023-06-17T05:49:53.699Z,93967.53
2023-06-17T05:50:50.493Z,93960.41
2023-06-17T05:51:47.207Z,93968.72
2023-06-17T05:52:45.621Z,93972.84
2023-06-17T05:53:45.066Z,93972.31
2023-06-17T05:54:43.460Z,93959.25
2023-06-17T05:55:40.382Z,93949.84
2023-06-17T05:56:37.241Z,93956.44
2023-06-17T05:57:34.065Z,93949.16
2023-06-17T05:58:30.885Z,93934.19
2023-06-17T05:59:30.001Z,93966.72
2023-06-17T06:00:26.945Z,93964.16
2023-06-17T06:01:24.011Z,93962.28
2023-06-17T06:02:21.101Z,93965.38
2023-06-17T06:03:17.901Z,93935.69
2023-06-17T06:04:14.860Z,93964.16
2023-06-17T06:05:11.755Z,93948.94
2023-06-17T06:06:08.637Z,93947.38
2023-06-17T06:07:05.522Z,93963.00
2023-06-17T06:08:02.344Z,93932.00
2023-06-17T06:08:59.081Z,93943.06
2023-06-17T06:09:55.883Z,93955.63
2023-06-17T06:10:52.751Z,93952.16
2023-06-17T06:11:49.621Z,93917.03
2023-06-17T06:12:46.873Z,93947.22
2023-06-17T06:13:43.704Z,93946.59
2023-06-17T06:14:40.533Z,93947.66
2023-06-17T06:15:37.425Z,93953.47
2023-06-17T06:16:34.308Z,93953.28
2023-06-17T06:17:31.404Z,93954.84
2023-06-17T06:18:29.443Z,93960.69
2023-06-17T06:19:26.267Z,93949.88
2023-06-17T06:20:23.374Z,93957.41
2023-06-17T06:21:20.494Z,93953.97
2023-06-17T06:22:17.329Z,93953.88
2023-06-17T06:23:14.257Z,93925.22
2023-06-17T06:24:11.149Z,93951.97
2023-06-17T06:25:08.879Z,93950.81
2023-06-17T06:26:05.763Z,93964.06
2023-06-17T06:27:02.555Z,93956.91
2023-06-17T06:28:02.378Z,93928.03
2023-06-17T06:28:59.209Z,93901.31
2023-06-17T06:29:56.072Z,93966.41
2023-06-17T06:30:52.827Z,93961.81
2023-06-17T06:31:49.654Z,93971.56
2023-06-17T06:32:46.527Z,93969.16
2023-06-17T06:33:43.442Z,93942.28
2023-06-17T06:34:40.275Z,93973.88
2023-06-17T06:35:37.080Z,93944.25
2023-06-17T06:36:33.904Z,93974.84
2023-06-17T06:37:30.920Z,93954.50
2023-06-17T06:38:27.684Z,93953.19
2023-06-17T06:39:24.420Z,93931.56
2023-06-17T06:40:21.896Z,93919.41
2023-06-17T06:41:18.973Z,93970.22
2023-06-17T06:42:15.910Z,93953.19
2023-06-17T06:43:12.634Z,93974.03
2023-06-17T06:44:09.696Z,93966.34
2023-06-17T06:45:07.010Z,93893.50
2023-06-17T06:46:03.905Z,93935.97
2023-06-17T06:47:01.026Z,93978.06
2023-06-17T06:47:57.895Z,93954.44
2023-06-17T06:48:54.814Z,93980.06
2023-06-17T06:49:51.729Z,93980.47
2023-06-17T06:50:48.499Z,93963.22
2023-06-17T06:51:45.323Z,93975.97
2023-06-17T06:52:42.211Z,93981.72
2023-06-17T06:53:38.983Z,93975.75
2023-06-17T06:54:35.830Z,93976.88
2023-06-17T06:55:32.724Z,93958.41
2023-06-17T06:56:29.685Z,93924.50
2023-06-17T06:58:40.526Z,93982.44
2023-06-17T06:59:37.326Z,93972.72
2023-06-17T07:00:34.108Z,93974.28
2023-06-17T07:01:31.633Z,93949.78
2023-06-17T07:02:28.832Z,93972.56
2023-06-17T07:03:25.778Z,93966.66
2023-06-17T07:04:22.648Z,93927.94
2023-06-17T07:05:22.351Z,93976.66
2023-06-17T07:06:19.169Z,93965.97
2023-06-17T07:07:15.967Z,93972.66
2023-06-17T07:08:12.863Z,93967.41
2023-06-17T07:09:09.707Z,93972.25
2023-06-17T07:10:06.972Z,93974.34
2023-06-17T07:11:03.760Z,93974.91
2023-06-17T07:12:00.526Z,93972.06
2023-06-17T07:12:57.334Z,93970.84
2023-06-17T07:13:54.123Z,93973.41
2023-06-17T07:14:51.036Z,93970.44
2023-06-17T07:15:48.128Z,93952.88
2023-06-17T07:16:45.799Z,93967.47
2023-06-17T07:17:44.229Z,93949.22
2023-06-17T07:18:41.148Z,93969.25
2023-06-17T07:19:37.982Z,93975.16
2023-06-17T07:20:34.844Z,93976.34
2023-06-17T07:21:31.704Z,93976.56
2023-06-17T07:22:28.555Z,93874.34
2023-06-17T07:23:25.517Z,93973.84
2023-06-17T07:24:22.330Z,93978.88
2023-06-17T07:25:19.212Z,93963.44
2023-06-17T07:26:16.124Z,93978.56
2023-06-17T07:27:14.015Z,93966.88
2023-06-17T07:28:10.893Z,93864.88
2023-06-17T07:29:07.718Z,93963.16
2023-06-17T07:30:05.935Z,93978.66
2023-06-17T07:31:02.860Z,93950.09
2023-06-17T07:31:59.749Z,93935.84
2023-06-17T07:32:57.047Z,93943.00
2023-06-17T07:33:59.630Z,93958.09
2023-06-17T07:34:58.425Z,93981.59
2023-06-17T07:35:55.425Z,93978.59
2023-06-17T07:36:53.883Z,93977.22
2023-06-17T07:37:54.109Z,93977.94
2023-06-17T07:38:51.756Z,93969.13
2023-06-17T07:39:48.686Z,93976.88
2023-06-17T07:40:48.052Z,93982.81
2023-06-17T07:41:44.902Z,93945.31
2023-06-17T07:42:44.011Z,93978.09
2023-06-17T07:43:41.016Z,93978.16
2023-06-17T07:44:37.831Z,93952.09
2023-06-17T07:45:34.628Z,93981.84
2023-06-17T07:46:33.319Z,93985.59
2023-06-17T07:47:30.239Z,93981.56
2023-06-17T07:48:27.003Z,93987.91
2023-06-17T07:49:23.836Z,93981.22
2023-06-17T07:50:20.983Z,93986.84
2023-06-17T07:51:18.036Z,93988.88
2023-06-17T07:52:14.884Z,93989.66
2023-06-17T07:53:11.861Z,93980.91
2023-06-17T07:54:08.623Z,94000.00
2023-06-17T07:55:08.519Z,93992.59
2023-06-17T07:56:06.921Z,93877.97
2023-06-17T07:57:04.561Z,93941.34
2023-06-17T07:58:01.838Z,93982.47
2023-06-17T07:58:58.683Z,93994.13
2023-06-17T07:59:55.635Z,93960.22
2023-06-17T08:00:52.397Z,93987.09
2023-06-17T08:01:49.144Z,93992.59
2023-06-17T08:02:46.297Z,93969.94
2023-06-17T08:03:43.212Z,93991.00
2023-06-17T08:04:40.010Z,93981.44
2023-06-17T08:05:37.815Z,93995.00
2023-06-17T08:06:38.729Z,93991.00
2023-06-17T08:07:38.005Z,94000.94
2023-06-17T08:08:37.354Z,94003.06
2023-06-17T08:09:34.337Z,93970.00
2023-06-17T08:10:31.530Z,93975.66
2023-06-17T08:11:28.489Z,93997.66
2023-06-17T08:12:25.566Z,94000.44
2023-06-17T08:13:22.443Z,94013.31
2023-06-17T08:14:19.268Z,93981.00
2023-06-17T08:15:16.147Z,93994.03
2023-06-17T08:16:13.006Z,93979.41
2023-06-17T08:17:10.721Z,93991.16
2023-06-17T08:18:07.625Z,94009.38
2023-06-17T08:19:04.440Z,93987.78
2023-06-17T08:20:01.288Z,94012.94
2023-06-17T08:20:58.097Z,94010.84
2023-06-17T08:21:54.884Z,94006.22
2023-06-17T08:22:51.716Z,94014.59
2023-06-17T08:23:51.991Z,94006.22
2023-06-17T08:24:49.027Z,94014.94
2023-06-17T08:25:46.987Z,94013.09
2023-06-17T08:26:45.147Z,94002.00
2023-06-17T08:27:45.425Z,94001.81
2023-06-17T08:28:42.259Z,94017.19
2023-06-17T08:29:39.030Z,93995.69
2023-06-17T08:30:35.885Z,94019.00
2023-06-17T08:31:32.781Z,93993.94
2023-06-17T08:32:29.672Z,94020.88
2023-06-17T08:33:26.473Z,93997.69
2023-06-17T08:34:23.453Z,94010.16
2023-06-17T08:35:20.331Z,94003.69
2023-06-17T08:36:17.119Z,94027.06
2023-06-17T08:37:13.959Z,94024.03
2023-06-17T08:38:10.895Z,94016.78
2023-06-17T08:39:09.158Z,94020.28
2023-06-17T08:40:06.844Z,94013.38
2023-06-17T08:41:03.631Z,94025.06
2023-06-17T08:42:00.541Z,93994.59
2023-06-17T08:43:05.106Z,94015.34
2023-06-17T08:44:03.679Z,94016.63
2023-06-17T08:45:01.638Z,93972.69
2023-06-17T08:46:00.858Z,94000.63
2023-06-17T08:47:01.852Z,93986.91
2023-06-17T08:47:59.483Z,94025.59
2023-06-17T08:48:58.755Z,94025.75
2023-06-17T08:49:59.537Z,94016.56
2023-06-17T08:50:56.766Z,94026.69
2023-06-17T08:51:53.982Z,94007.88
2023-06-17T08:52:55.097Z,93947.97
2023-06-17T08:53:53.351Z,94026.03
2023-06-17T08:54:50.523Z,93994.69
2023-06-17T08:55:48.318Z,94026.34
2023-06-17T08:56:46.245Z,94007.94
2023-06-17T08:57:44.789Z,93999.13
2023-06-17T08:58:43.816Z,94023.78
2023-06-17T08:59:43.712Z,94032.16
2023-06-17T09:00:40.539Z,94028.06
2023-06-17T09:01:40.210Z,94026.19
2023-06-17T09:02:38.740Z,94026.91
2023-06-17T09:03:39.352Z,94028.47
2023-06-17T09:04:36.611Z,94019.63
2023-06-17T09:05:33.435Z,94005.50
2023-06-17T09:06:31.033Z,94024.75
2023-06-17T09:07:28.667Z,94020.34
2023-06-17T09:08:25.974Z,93987.69
2023-06-17T09:09:22.757Z,94017.06
2023-06-17T09:10:21.373Z,93987.38
2023-06-17T09:11:22.850Z,94016.97
2023-06-17T09:12:19.704Z,93974.50
2023-06-17T09:13:16.553Z,94020.53
2023-06-17T09:14:13.385Z,94027.38
2023-06-17T09:15:19.510Z,93973.88
2023-06-17T09:16:16.404Z,94017.13
2023-06-17T09:17:33.985Z,94016.75
2023-06-17T09:18:34.927Z,94022.03
2023-06-17T09:19:33.010Z,94017.91
2023-06-17T09:20:33.838Z,93988.06
2023-06-17T09:21:31.214Z,94016.13
2023-06-17T09:22:28.194Z,94012.22
2023-06-17T09:23:25.268Z,94011.84
2023-06-17T09:24:30.750Z,93931.91
2023-06-17T09:25:27.709Z,94007.47
2023-06-17T09:26:31.884Z,93974.22
2023-06-17T09:27:28.754Z,93998.81
2023-06-17T09:28:26.160Z,94002.69
2023-06-17T09:29:23.278Z,94004.44
2023-06-17T09:30:24.440Z,94002.63
2023-06-17T09:31:22.393Z,94014.47
2023-06-17T09:32:19.162Z,93998.97
2023-06-17T09:33:24.084Z,94010.47
2023-06-17T09:34:22.444Z,94014.13
2023-06-17T09:35:19.648Z,94011.16
2023-06-17T09:36:18.903Z,93932.50
2023-06-17T09:37:16.652Z,94013.84
2023-06-17T09:38:17.002Z,93997.63
2023-06-17T09:39:14.413Z,94016.81
2023-06-17T09:40:12.865Z,93935.59
2023-06-17T09:41:15.760Z,93982.56
2023-06-17T09:42:13.532Z,94009.13
2023-06-17T09:43:26.717Z,94007.84
2023-06-17T09:44:25.141Z,94011.84
2023-06-17T09:45:26.023Z,94000.72
2023-06-17T09:46:36.322Z,94013.03
2023-06-17T09:47:38.803Z,94008.03
2023-06-17T09:48:40.013Z,94017.19
2023-06-17T09:49:38.334Z,93996.31
2023-06-17T09:50:40.538Z,94014.72
2023-06-17T09:51:39.257Z,94018.41
2023-06-17T09:52:38.457Z,94010.06
2023-06-17T09:53:38.566Z,93971.59
2023-06-17T09:54:55.818Z,94017.78
2023-06-17T09:55:58.117Z,94013.75
2023-06-17T09:56:55.921Z,94014.03
2023-06-17T09:57:56.595Z,94009.66
2023-06-17T09:58:57.474Z,94008.97
2023-06-17T09:59:58.560Z,93969.25
2023-06-17T10:00:58.223Z,94019.00
2023-06-17T10:01:55.934Z,94015.28
2023-06-17T10:02:54.758Z,94013.78
2023-06-17T10:03:52.031Z,94017.75
2023-06-17T10:04:48.868Z,94004.00
2023-06-17T10:05:55.888Z,93989.09
2023-06-17T10:06:54.727Z,94012.47
2023-06-17T10:07:54.629Z,94017.03
2023-06-17T10:08:53.755Z,94013.91
2023-06-17T10:09:51.091Z,94009.41
2023-06-17T10:10:50.453Z,94019.78
2023-06-17T10:11:54.079Z,94008.69
2023-06-17T10:12:56.042Z,94005.91
2023-06-17T10:14:03.392Z,94019.50
2023-06-17T10:15:04.978Z,93973.50
2023-06-17T10:16:05.859Z,94020.22
2023-06-17T10:17:09.066Z,94030.72
2023-06-17T10:18:09.376Z,94025.69
2023-06-17T10:19:10.788Z,94022.25
2023-06-17T10:20:11.352Z,94019.28
2023-06-17T10:21:12.740Z,94020.94
2023-06-17T10:22:14.662Z,94025.13
2023-06-17T10:23:12.656Z,93988.53
2023-06-17T10:24:11.331Z,94027.13
2023-06-17T10:25:10.906Z,94012.44
2023-06-17T10:26:08.772Z,94031.16
2023-06-17T10:27:07.924Z,94015.22
2023-06-17T10:28:05.430Z,94023.38
2023-06-17T10:29:07.907Z,94028.66
2023-06-17T10:30:25.764Z,94027.69
2023-06-17T10:31:29.286Z,94031.16
2023-06-17T10:32:27.047Z,94007.13
2023-06-17T10:33:31.518Z,94030.38
2023-06-17T10:34:28.399Z,94008.69
2023-06-17T10:35:37.076Z,94003.22
2023-06-17T10:36:38.130Z,94025.50
2023-06-17T10:37:43.722Z,94042.22
2023-06-17T10:38:40.700Z,94004.44
2023-06-17T10:39:37.502Z,94033.94
2023-06-17T10:40:37.548Z,93981.50
2023-06-17T10:41:43.590Z,94033.78
2023-06-17T10:42:40.572Z,94024.84
2023-06-17T10:43:38.278Z,94031.25
2023-06-17T10:44:54.075Z,94031.38
2023-06-17T10:45:56.716Z,94036.06
2023-06-17T10:46:54.343Z,94020.94
2023-06-17T10:47:51.305Z,94038.06
2023-06-17T10:48:48.176Z,94027.72
2023-06-17T10:49:49.129Z,94021.16
2023-06-17T10:50:51.543Z,94034.94
2023-06-17T10:51:57.836Z,93988.72
2023-06-17T10:52:56.430Z,94040.22
2023-06-17T10:53:53.253Z,94044.63
2023-06-17T10:54:56.889Z,94038.41
2023-06-17T10:55:54.020Z,93989.31
2023-06-17T10:56:53.804Z,94043.97
2023-06-17T10:57:51.547Z,94045.22
2023-06-17T10:58:49.446Z,94039.75
2023-06-17T10:59:46.351Z,94045.59
2023-06-17T11:00:43.182Z,94004.00
2023-06-17T11:01:43.137Z,94042.88
2023-06-17T11:02:41.041Z,94042.38
2023-06-17T11:03:38.959Z,94046.00
2023-06-17T11:04:42.014Z,94041.03
2023-06-17T11:05:38.951Z,94037.84
2023-06-17T11:06:35.961Z,94037.50
2023-06-17T11:07:34.627Z,94035.59
2023-06-17T11:08:34.237Z,93992.03
2023-06-17T11:09:31.514Z,94033.28
2023-06-17T11:10:28.785Z,94028.00
2023-06-17T11:11:25.816Z,94045.81
2023-06-17T11:12:22.825Z,94048.56
2023-06-17T11:13:23.270Z,94048.34
2023-06-17T11:14:20.171Z,94042.81
2023-06-17T11:15:17.094Z,94028.16
2023-06-17T11:16:14.628Z,94035.72
2023-06-17T11:17:12.220Z,94043.06
2023-06-17T11:18:09.698Z,94022.75
2023-06-17T11:19:07.318Z,94046.25
2023-06-17T11:20:09.162Z,94047.13
2023-06-17T11:21:07.692Z,94028.66
2023-06-17T11:22:04.938Z,94045.78
2023-06-17T11:23:04.826Z,94024.47
2023-06-17T11:24:01.835Z,94045.03
2023-06-17T11:24:59.200Z,94032.50
2023-06-17T11:25:56.242Z,94045.78